Santa Coloma de Gramanet, Spain
Current Conditions -  °F | °C
As of 4:30 PM on Monday 24 Nov 2014 (Local Time) from LELL Reporting Station
Scattered Clouds Scattered Clouds  
Wind Chill: 66°   Ceiling: Unl
Heat Index: 66°   Visibility: 6mi
Dew Point: 61°   Wind: 2mph
Humidity: 83%   Direction: NA
Pressure: 30.03"   Gusts: NA
Location:  41.45°N, 2.22°E
Report Text: LELL 241530Z VRB02KT 9999 FEW020 SCT075 19/16 Q1017
Loading
Personal Weather Stations






























Interactive Weather Map New forecast layout! Learn more

10-Day Weather Forecast

Advertisements
Track Severe Weather on mobile